createdAt,value
2022-12-03T00:00:37.283Z,0.50
2022-12-03T00:03:04.145Z,0.40
2022-12-03T00:05:30.924Z,0.40
2022-12-03T00:07:57.709Z,0.40
2022-12-03T00:10:24.398Z,0.40
2022-12-03T00:12:50.995Z,0.30
2022-12-03T00:15:17.606Z,0.30
2022-12-03T00:17:44.284Z,0.30
2022-12-03T00:20:16.837Z,0.20
2022-12-03T00:22:43.444Z,0.20
2022-12-03T00:25:10.135Z,0.20
2022-12-03T00:27:36.756Z,0.20
2022-12-03T00:30:03.923Z,0.30
2022-12-03T00:32:30.564Z,0.30
2022-12-03T00:34:57.161Z,0.30
2022-12-03T00:37:23.784Z,0.30
2022-12-03T00:39:50.429Z,0.30
2022-12-03T00:42:17.039Z,0.40
2022-12-03T00:44:43.626Z,0.40
2022-12-03T00:47:10.346Z,0.40
2022-12-03T00:49:37.094Z,0.30
2022-12-03T00:52:03.736Z,0.30
2022-12-03T00:54:32.259Z,0.20
2022-12-03T00:56:59.017Z,0.30
2022-12-03T00:59:25.698Z,0.30
2022-12-03T01:01:52.355Z,0.30
2022-12-03T01:04:19.061Z,0.30
2022-12-03T01:06:45.662Z,0.30
2022-12-03T01:09:12.258Z,0.30
2022-12-03T01:11:38.907Z,0.30
2022-12-03T01:14:06.466Z,0.30
2022-12-03T01:16:33.432Z,0.40
2022-12-03T01:19:00.135Z,0.40
2022-12-03T01:21:26.747Z,0.40
2022-12-03T01:23:53.381Z,0.40
2022-12-03T01:26:19.999Z,0.40
2022-12-03T01:28:46.590Z,0.50
2022-12-03T01:31:31.903Z,0.50
2022-12-03T01:34:00.241Z,0.50
2022-12-03T01:36:26.952Z,0.50
2022-12-03T01:38:53.574Z,0.40
2022-12-03T01:41:20.958Z,0.30
2022-12-03T01:43:47.850Z,0.30
2022-12-03T01:46:16.343Z,0.40
2022-12-03T01:48:43.195Z,0.40
2022-12-03T01:51:09.781Z,0.40
2022-12-03T01:53:36.388Z,0.40
2022-12-03T01:56:03.246Z,0.40
2022-12-03T01:58:29.928Z,0.40
2022-12-03T02:01:01.811Z,0.50
2022-12-03T02:03:28.604Z,0.40
2022-12-03T02:05:56.792Z,0.50
2022-12-03T02:11:52.118Z,0.40
2022-12-03T02:14:21.631Z,0.50
2022-12-03T02:16:48.411Z,0.60
2022-12-03T02:19:21.720Z,0.50
2022-12-03T02:21:53.539Z,0.50
2022-12-03T02:24:26.013Z,0.50
2022-12-03T02:26:52.619Z,0.50
2022-12-03T02:29:19.260Z,0.50
2022-12-03T02:31:46.322Z,0.60
2022-12-03T02:34:33.001Z,0.60
2022-12-03T02:36:59.728Z,0.50
2022-12-03T02:39:26.380Z,0.40
2022-12-03T02:42:11.834Z,0.40
2022-12-03T02:44:38.567Z,0.40
2022-12-03T02:47:05.263Z,0.40
2022-12-03T02:49:31.928Z,0.40
2022-12-03T02:51:58.531Z,0.30
2022-12-03T02:54:25.408Z,0.30
2022-12-03T02:56:52.170Z,0.30
2022-12-03T02:59:18.871Z,0.30
2022-12-03T03:01:45.703Z,0.30
2022-12-03T03:04:12.369Z,0.20
2022-12-03T03:06:38.996Z,0.20
2022-12-03T03:09:05.664Z,0.30
2022-12-03T03:11:32.535Z,0.20
2022-12-03T03:14:01.241Z,0.20
2022-12-03T03:16:28.004Z,0.20
2022-12-03T03:18:54.883Z,0.20
2022-12-03T03:21:21.580Z,0.20
2022-12-03T03:23:48.187Z,0.20
2022-12-03T03:26:16.461Z,0.20
2022-12-03T03:28:44.712Z,0.20
2022-12-03T03:31:12.541Z,0.20
2022-12-03T03:33:40.133Z,0.20
2022-12-03T03:36:07.027Z,0.30
2022-12-03T03:38:34.078Z,0.20
2022-12-03T03:41:01.797Z,0.20
2022-12-03T03:43:29.595Z,0.20
2022-12-03T03:45:56.425Z,0.20
2022-12-03T03:48:23.280Z,0.20
2022-12-03T03:50:50.759Z,0.30
2022-12-03T03:53:18.354Z,0.20
2022-12-03T03:55:45.440Z,0.20
2022-12-03T03:58:12.268Z,0.20
2022-12-03T04:00:39.090Z,0.20
2022-12-03T04:03:05.892Z,0.10
2022-12-03T04:05:32.649Z,0.20
2022-12-03T04:07:59.373Z,0.20
2022-12-03T04:11:01.318Z,0.20
2022-12-03T04:13:27.918Z,0.30
2022-12-03T04:15:54.686Z,0.20
2022-12-03T04:18:39.936Z,0.30
2022-12-03T04:21:26.404Z,0.30
2022-12-03T04:23:53.045Z,0.20
2022-12-03T04:26:38.452Z,0.20
2022-12-03T04:29:05.094Z,0.20
2022-12-03T04:31:50.176Z,0.20
2022-12-03T04:34:35.591Z,0.10
2022-12-03T04:37:02.981Z,0.10
2022-12-03T04:39:29.596Z,0.10
2022-12-03T04:41:56.186Z,0.10
2022-12-03T04:44:38.192Z,0.10
2022-12-03T04:47:11.097Z,0.10
2022-12-03T04:49:39.336Z,0.10
2022-12-03T04:52:06.320Z,0.00
2022-12-03T04:54:33.310Z,0.10
2022-12-03T04:57:00.125Z,0.10
2022-12-03T04:59:26.764Z,0.10
2022-12-03T05:01:53.490Z,0.10
2022-12-03T05:04:20.349Z,0.10
2022-12-03T05:06:47.273Z,0.20
2022-12-03T05:09:14.107Z,0.20
2022-12-03T05:11:41.156Z,0.20
2022-12-03T05:14:08.764Z,0.20
2022-12-03T05:16:36.117Z,0.20
2022-12-03T05:19:03.114Z,0.20
2022-12-03T05:21:29.759Z,0.20
2022-12-03T05:23:56.377Z,0.10
2022-12-03T05:26:23.060Z,0.10
2022-12-03T05:28:49.703Z,0.10
2022-12-03T05:31:16.564Z,0.10
2022-12-03T05:33:44.525Z,0.10
2022-12-03T05:36:11.296Z,0.10
2022-12-03T05:38:38.107Z,0.10
2022-12-03T05:41:24.727Z,0.10
2022-12-03T05:43:51.456Z,0.00
2022-12-03T05:46:18.253Z,0.00
2022-12-03T05:48:44.965Z,0.00
2022-12-03T05:51:11.700Z,0.00
2022-12-03T05:53:38.308Z,0.00
2022-12-03T05:56:05.142Z,0.10
2022-12-03T05:58:31.782Z,0.10
2022-12-03T06:00:58.384Z,0.10
2022-12-03T06:03:25.214Z,0.10
2022-12-03T06:05:51.968Z,0.10
2022-12-03T06:08:18.650Z,0.10
2022-12-03T06:10:45.494Z,0.10
2022-12-03T06:13:12.104Z,0.10
2022-12-03T06:15:43.429Z,0.10
2022-12-03T06:18:10.789Z,0.10
2022-12-03T06:20:37.446Z,0.10
2022-12-03T06:23:04.052Z,0.10
2022-12-03T06:25:30.677Z,0.10
2022-12-03T06:27:57.279Z,0.20
2022-12-03T06:30:23.888Z,0.10
2022-12-03T06:32:50.533Z,0.10
2022-12-03T06:35:17.157Z,0.10
2022-12-03T06:37:43.767Z,0.10
2022-12-03T06:40:10.705Z,0.00
2022-12-03T06:42:37.342Z,0.00
2022-12-03T06:45:05.086Z,0.00
2022-12-03T06:47:31.694Z,0.00
2022-12-03T06:49:58.335Z,0.00
2022-12-03T06:52:24.932Z,0.00
2022-12-03T06:54:51.697Z,-0.10
2022-12-03T06:57:18.660Z,-0.10
2022-12-03T06:59:45.292Z,-0.10
2022-12-03T07:02:12.708Z,-0.10
2022-12-03T07:04:44.684Z,-0.10
2022-12-03T07:07:12.992Z,0.00
2022-12-03T07:09:39.616Z,-0.10
2022-12-03T07:12:06.289Z,-0.10
2022-12-03T07:14:32.908Z,-0.10
2022-12-03T07:16:59.506Z,0.00
2022-12-03T07:19:32.150Z,-0.10
2022-12-03T07:21:59.382Z,0.00
2022-12-03T07:24:26.058Z,0.00
2022-12-03T07:26:52.684Z,0.00
2022-12-03T07:29:19.309Z,0.10
2022-12-03T07:31:46.018Z,0.10
2022-12-03T07:34:12.800Z,0.00
2022-12-03T07:36:39.405Z,0.10
2022-12-03T07:39:06.115Z,0.10
2022-12-03T07:41:32.709Z,0.10
2022-12-03T07:43:59.352Z,0.20
2022-12-03T07:46:26.098Z,0.20
2022-12-03T07:48:52.797Z,0.20
2022-12-03T07:51:19.493Z,0.20
2022-12-03T07:53:46.101Z,0.20
2022-12-03T07:56:12.928Z,0.20
2022-12-03T07:58:39.592Z,0.20
2022-12-03T08:01:06.273Z,0.20
2022-12-03T08:03:32.968Z,0.20
2022-12-03T08:05:59.563Z,0.20
2022-12-03T08:08:26.281Z,0.20
2022-12-03T08:10:52.879Z,0.20
2022-12-03T08:13:19.516Z,0.20
2022-12-03T08:15:46.410Z,0.20
2022-12-03T08:18:16.943Z,0.10
2022-12-03T08:20:44.480Z,0.20
2022-12-03T08:23:15.767Z,0.30
2022-12-03T08:25:43.315Z,0.30
2022-12-03T08:28:13.026Z,0.30
2022-12-03T08:30:40.637Z,0.30
2022-12-03T08:33:16.453Z,0.30
2022-12-03T08:35:46.395Z,0.30
2022-12-03T08:38:13.076Z,0.40
2022-12-03T08:40:41.179Z,0.40
2022-12-03T08:43:18.968Z,0.30
2022-12-03T08:45:45.944Z,0.30
2022-12-03T08:48:20.299Z,0.30
2022-12-03T08:50:46.947Z,0.30
2022-12-03T08:53:13.552Z,0.30
2022-12-03T08:55:52.848Z,0.40
2022-12-03T08:58:23.809Z,0.40
2022-12-03T09:01:14.281Z,0.40
2022-12-03T09:03:49.159Z,0.50
2022-12-03T09:06:15.811Z,0.40
2022-12-03T09:08:42.482Z,0.40
2022-12-03T09:11:09.099Z,0.40
2022-12-03T09:13:35.730Z,0.40
2022-12-03T09:16:02.362Z,0.40
2022-12-03T09:18:29.001Z,0.40
2022-12-03T09:20:56.420Z,0.40
2022-12-03T09:23:23.412Z,0.40
2022-12-03T09:25:50.071Z,0.40
2022-12-03T09:28:16.960Z,0.30
2022-12-03T09:30:43.591Z,0.40
2022-12-03T09:33:10.587Z,0.40
2022-12-03T09:35:37.227Z,0.40
2022-12-03T09:38:03.849Z,0.40
2022-12-03T09:40:30.499Z,0.50
2022-12-03T09:43:00.850Z,0.50
2022-12-03T09:45:27.526Z,0.60
2022-12-03T09:47:54.678Z,0.70
2022-12-03T09:50:26.355Z,0.80
2022-12-03T09:52:55.005Z,0.80
2022-12-03T09:55:24.076Z,0.80
2022-12-03T09:57:54.563Z,0.80
2022-12-03T10:00:23.434Z,0.80
2022-12-03T10:02:50.916Z,0.80
2022-12-03T10:05:19.548Z,0.80
2022-12-03T10:07:46.647Z,0.80
2022-12-03T10:10:17.915Z,0.70
2022-12-03T10:12:44.956Z,0.70
2022-12-03T10:15:15.925Z,0.80
2022-12-03T10:17:42.874Z,0.70
2022-12-03T10:20:14.020Z,0.70
2022-12-03T10:22:40.676Z,0.70
2022-12-03T10:25:09.251Z,0.70
2022-12-03T10:27:35.917Z,0.70
2022-12-03T10:30:04.668Z,0.80
2022-12-03T10:32:41.809Z,0.80
2022-12-03T10:35:14.538Z,0.80
2022-12-03T10:37:55.928Z,0.90
2022-12-03T10:40:27.303Z,0.90
2022-12-03T10:43:11.794Z,0.90
2022-12-03T10:45:38.494Z,0.90
2022-12-03T10:48:19.533Z,1.00
2022-12-03T10:50:53.426Z,1.00
2022-12-03T10:53:21.396Z,0.90
2022-12-03T10:55:51.198Z,0.80
2022-12-03T10:58:20.161Z,0.80
2022-12-03T11:00:47.072Z,0.80
2022-12-03T11:03:27.203Z,0.80
2022-12-03T11:05:54.666Z,0.80
2022-12-03T11:08:23.474Z,0.80
2022-12-03T11:11:04.109Z,0.70
2022-12-03T11:13:33.876Z,0.70
2022-12-03T11:16:01.370Z,0.80
2022-12-03T11:18:34.420Z,0.80
2022-12-03T11:21:02.102Z,0.80
2022-12-03T11:23:44.076Z,0.80
2022-12-03T11:26:18.969Z,0.80
2022-12-03T11:28:46.341Z,0.70
2022-12-03T11:31:39.624Z,0.60
2022-12-03T11:34:18.715Z,0.60
2022-12-03T11:37:04.219Z,0.60
2022-12-03T11:39:49.389Z,0.60
2022-12-03T11:42:28.309Z,0.70
2022-12-03T11:45:01.014Z,0.70
2022-12-03T11:47:27.652Z,0.80
2022-12-03T11:49:54.632Z,0.80
2022-12-03T11:52:32.210Z,0.70
2022-12-03T11:55:04.333Z,0.70
2022-12-03T11:57:38.569Z,0.60
2022-12-03T12:00:07.776Z,0.60
2022-12-03T12:02:41.577Z,0.60
2022-12-03T12:05:15.121Z,0.50
2022-12-03T12:07:42.335Z,0.40
2022-12-03T12:10:09.278Z,0.40
2022-12-03T12:12:40.741Z,0.40
2022-12-03T12:15:26.157Z,0.50
2022-12-03T12:17:52.777Z,0.50
2022-12-03T12:20:24.654Z,0.40
2022-12-03T12:22:52.421Z,0.50
2022-12-03T12:25:38.943Z,0.50
2022-12-03T12:28:21.379Z,0.50
2022-12-03T12:30:48.003Z,0.50
2022-12-03T12:33:23.198Z,0.60
2022-12-03T12:35:50.810Z,0.60
2022-12-03T12:38:21.410Z,0.70
2022-12-03T12:40:49.384Z,0.70
2022-12-03T12:43:24.751Z,0.70
2022-12-03T12:46:13.568Z,0.70
2022-12-03T12:48:46.981Z,0.70
2022-12-03T12:51:20.158Z,0.80
2022-12-03T12:53:47.806Z,0.60
2022-12-03T12:56:23.719Z,0.70
2022-12-03T12:58:50.756Z,0.60
2022-12-03T13:01:21.936Z,0.60
2022-12-03T13:03:50.499Z,0.50
2022-12-03T13:06:18.182Z,0.40
2022-12-03T13:08:46.858Z,0.40
2022-12-03T13:11:34.545Z,0.40
2022-12-03T13:14:05.495Z,0.50
2022-12-03T13:16:32.752Z,0.40
2022-12-03T13:19:00.285Z,0.30
2022-12-03T13:21:26.873Z,0.40
2022-12-03T13:23:55.117Z,0.40
2022-12-03T13:26:38.226Z,0.40
2022-12-03T13:29:14.565Z,0.50
2022-12-03T13:31:44.190Z,0.50
2022-12-03T13:34:13.229Z,0.60
2022-12-03T13:36:41.957Z,0.70
2022-12-03T13:39:29.208Z,0.60
2022-12-03T13:42:14.394Z,0.60
2022-12-03T13:44:44.082Z,0.40
2022-12-03T13:47:12.474Z,0.40
2022-12-03T13:49:39.146Z,0.40
2022-12-03T13:52:10.720Z,0.40
2022-12-03T13:54:39.187Z,0.40
2022-12-03T13:57:06.492Z,0.40
2022-12-03T13:59:33.144Z,0.40
2022-12-03T14:01:59.849Z,0.40
2022-12-03T14:04:26.595Z,0.40
2022-12-03T14:06:53.205Z,0.30
2022-12-03T14:09:19.839Z,0.20
2022-12-03T14:12:04.910Z,0.20
2022-12-03T14:14:31.661Z,0.30
2022-12-03T14:17:00.056Z,0.30
2022-12-03T14:19:27.028Z,0.30
2022-12-03T14:21:53.693Z,0.40
2022-12-03T14:24:20.406Z,0.40
2022-12-03T14:26:47.019Z,0.40
2022-12-03T14:29:13.643Z,0.50
2022-12-03T14:31:40.409Z,0.60
2022-12-03T14:34:07.126Z,0.50
2022-12-03T14:36:33.841Z,0.50
2022-12-03T14:39:00.552Z,0.40
2022-12-03T14:41:45.612Z,0.40
2022-12-03T14:44:12.219Z,0.50
2022-12-03T14:46:38.819Z,0.50
2022-12-03T14:49:05.502Z,0.50
2022-12-03T14:51:32.110Z,0.50
2022-12-03T14:53:58.739Z,0.40
2022-12-03T14:56:25.361Z,0.40
2022-12-03T14:58:51.974Z,0.30
2022-12-03T15:01:18.642Z,0.30
2022-12-03T15:03:45.279Z,0.40
2022-12-03T15:06:11.891Z,0.40
2022-12-03T15:08:38.521Z,0.50
2022-12-03T15:11:05.232Z,0.50
2022-12-03T15:13:31.919Z,0.50
2022-12-03T15:15:58.796Z,0.50
2022-12-03T15:18:25.443Z,0.50
2022-12-03T15:20:52.074Z,0.60
2022-12-03T15:23:18.709Z,0.50
2022-12-03T15:25:45.359Z,0.50
2022-12-03T15:28:12.050Z,0.50
2022-12-03T15:30:38.676Z,0.50
2022-12-03T15:33:05.444Z,0.50
2022-12-03T15:35:32.511Z,0.50
2022-12-03T15:37:59.130Z,0.50
2022-12-03T15:40:25.913Z,0.50
2022-12-03T15:42:52.926Z,0.40
2022-12-03T15:45:19.611Z,0.50
2022-12-03T15:47:46.337Z,0.40
2022-12-03T15:50:14.091Z,0.40
2022-12-03T15:52:40.764Z,0.30
2022-12-03T15:55:07.665Z,0.40
2022-12-03T15:57:34.303Z,0.40
2022-12-03T16:00:00.950Z,0.40
2022-12-03T16:02:33.635Z,0.40
2022-12-03T16:05:04.955Z,0.40
2022-12-03T16:07:31.670Z,0.40
2022-12-03T16:09:58.508Z,0.50
2022-12-03T16:12:25.124Z,0.40
2022-12-03T16:14:51.737Z,0.40
2022-12-03T16:17:18.429Z,0.40
2022-12-03T16:19:45.098Z,0.40
2022-12-03T16:22:11.743Z,0.30
2022-12-03T16:24:38.521Z,0.40
2022-12-03T16:27:05.176Z,0.40
2022-12-03T16:29:31.782Z,0.40
2022-12-03T16:31:58.470Z,0.40
2022-12-03T16:34:25.393Z,0.40
2022-12-03T16:36:52.143Z,0.40
2022-12-03T16:39:18.822Z,0.40
2022-12-03T16:41:45.444Z,0.40
2022-12-03T16:44:30.399Z,0.30
2022-12-03T16:46:57.091Z,0.30
2022-12-03T16:49:23.783Z,0.40
2022-12-03T16:51:51.938Z,0.40
2022-12-03T16:54:18.595Z,0.40
2022-12-03T16:56:45.179Z,0.30
2022-12-03T16:59:11.792Z,0.30
2022-12-03T17:01:38.475Z,0.20
2022-12-03T17:04:05.168Z,0.20
2022-12-03T17:06:31.804Z,0.20
2022-12-03T17:08:58.406Z,0.30
2022-12-03T17:11:25.033Z,0.30
2022-12-03T17:13:51.663Z,0.30
2022-12-03T17:16:18.601Z,0.50
2022-12-03T17:18:45.320Z,0.40
2022-12-03T17:21:11.959Z,0.50
2022-12-03T17:23:38.610Z,0.50
2022-12-03T17:26:05.247Z,0.40
2022-12-03T17:28:31.874Z,0.40
2022-12-03T17:30:58.590Z,0.30
2022-12-03T17:33:25.253Z,0.40
2022-12-03T17:35:51.861Z,0.30
2022-12-03T17:38:18.463Z,0.40
2022-12-03T17:40:45.071Z,0.40
2022-12-03T17:43:11.672Z,0.40
2022-12-03T17:45:38.420Z,0.50
2022-12-03T17:48:05.467Z,0.50
2022-12-03T17:50:32.079Z,0.40
2022-12-03T17:52:58.678Z,0.30
2022-12-03T17:55:34.577Z,0.20
2022-12-03T17:58:05.256Z,0.20
2022-12-03T18:00:32.451Z,0.10
2022-12-03T18:02:59.042Z,0.10
2022-12-03T18:05:25.687Z,0.10
2022-12-03T18:07:52.372Z,0.00
2022-12-03T18:10:19.130Z,0.10
2022-12-03T18:12:45.742Z,0.10
2022-12-03T18:15:12.372Z,0.10
2022-12-03T18:17:39.034Z,0.10
2022-12-03T18:20:06.432Z,0.00
2022-12-03T18:22:33.608Z,0.00
2022-12-03T18:25:00.418Z,0.10
2022-12-03T18:27:27.313Z,0.10
2022-12-03T18:29:54.232Z,0.10
2022-12-03T18:32:28.907Z,0.10
2022-12-03T18:34:56.758Z,0.10
2022-12-03T18:37:25.458Z,0.10
2022-12-03T18:39:52.296Z,0.20
2022-12-03T18:42:20.342Z,0.10
2022-12-03T18:44:49.827Z,0.10
2022-12-03T18:47:20.926Z,0.20
2022-12-03T18:49:47.769Z,0.10
2022-12-03T18:52:15.505Z,0.10
2022-12-03T18:54:42.373Z,0.10
2022-12-03T18:57:09.281Z,0.10
2022-12-03T18:59:36.776Z,0.10
2022-12-03T19:02:03.884Z,0.20
2022-12-03T19:04:30.952Z,0.20
2022-12-03T19:06:57.705Z,0.20
2022-12-03T19:09:24.353Z,0.20
2022-12-03T19:11:50.991Z,0.30
2022-12-03T19:14:17.655Z,0.30
2022-12-03T19:16:44.624Z,0.30
2022-12-03T19:19:11.399Z,0.30
2022-12-03T19:21:38.008Z,0.30
2022-12-03T19:24:23.874Z,0.30
2022-12-03T19:26:54.527Z,0.30
2022-12-03T19:29:22.145Z,0.30
2022-12-03T19:31:49.508Z,0.40
2022-12-03T19:34:16.391Z,0.30
2022-12-03T19:36:42.992Z,0.30
2022-12-03T19:39:09.601Z,0.30
2022-12-03T19:41:36.220Z,0.30
2022-12-03T19:44:07.722Z,0.30
2022-12-03T19:46:37.279Z,0.30
2022-12-03T19:49:04.827Z,0.30
2022-12-03T19:51:35.782Z,0.30
2022-12-03T19:54:03.836Z,0.30
2022-12-03T19:56:30.640Z,0.30
2022-12-03T19:58:57.332Z,0.30
2022-12-03T20:01:25.360Z,0.30
2022-12-03T20:03:54.131Z,0.30
2022-12-03T20:06:25.318Z,0.30
2022-12-03T20:08:59.519Z,0.20
2022-12-03T20:11:27.856Z,0.20
2022-12-03T20:13:58.492Z,0.20
2022-12-03T20:16:25.757Z,0.20
2022-12-03T20:18:55.850Z,0.20
2022-12-03T20:21:22.491Z,0.10
2022-12-03T20:23:49.082Z,0.20
2022-12-03T20:26:17.037Z,0.20
2022-12-03T20:28:44.212Z,0.20
2022-12-03T20:31:13.390Z,0.30
2022-12-03T20:33:41.318Z,0.20
2022-12-03T20:36:08.465Z,0.30
2022-12-03T20:38:36.605Z,0.30
2022-12-03T20:41:07.476Z,0.40
2022-12-03T20:43:34.311Z,0.30
2022-12-03T20:46:07.816Z,0.30
2022-12-03T20:48:34.731Z,0.40
2022-12-03T20:51:08.494Z,0.40
2022-12-03T20:53:35.580Z,0.30
2022-12-03T20:56:02.692Z,0.40
2022-12-03T20:58:29.837Z,0.40
2022-12-03T21:00:56.528Z,0.30
2022-12-03T21:03:23.166Z,0.30
2022-12-03T21:05:49.840Z,0.30
2022-12-03T21:08:27.916Z,0.30
2022-12-03T21:11:06.067Z,0.30
2022-12-03T21:13:32.755Z,0.30
2022-12-03T21:16:03.811Z,0.30
2022-12-03T21:18:30.536Z,0.30
2022-12-03T21:20:58.692Z,0.30
2022-12-03T21:23:25.311Z,0.30
2022-12-03T21:25:51.919Z,0.30
2022-12-03T21:28:18.508Z,0.40
2022-12-03T21:30:45.167Z,0.40
2022-12-03T21:33:11.823Z,0.40
2022-12-03T21:35:38.989Z,0.40
2022-12-03T21:38:05.639Z,0.50
2022-12-03T21:40:32.811Z,0.50
2022-12-03T21:42:59.424Z,0.40
2022-12-03T21:45:26.245Z,0.40
2022-12-03T21:47:52.998Z,0.40
2022-12-03T21:50:20.244Z,0.40
2022-12-03T21:52:46.932Z,0.40
2022-12-03T21:55:13.546Z,0.50
2022-12-03T21:57:40.170Z,0.50
2022-12-03T22:00:07.723Z,0.40
2022-12-03T22:02:38.144Z,0.40
2022-12-03T22:05:04.986Z,0.40
2022-12-03T22:07:35.437Z,0.40
2022-12-03T22:10:02.296Z,0.40
2022-12-03T22:12:28.952Z,0.40
2022-12-03T22:14:57.068Z,0.40
2022-12-03T22:17:24.118Z,0.50
2022-12-03T22:19:50.752Z,0.50
2022-12-03T22:22:17.641Z,0.50
2022-12-03T22:24:46.017Z,0.50
2022-12-03T22:27:13.543Z,0.60
2022-12-03T22:29:40.605Z,0.50
2022-12-03T22:32:07.236Z,0.50
2022-12-03T22:34:33.843Z,0.50
2022-12-03T22:37:00.430Z,0.50
2022-12-03T22:39:27.040Z,0.50
2022-12-03T22:41:53.849Z,0.40
2022-12-03T22:44:20.459Z,0.40
2022-12-03T22:46:47.101Z,0.40
2022-12-03T22:49:13.918Z,0.40
2022-12-03T22:51:40.526Z,0.50
2022-12-03T22:54:07.139Z,0.50
2022-12-03T22:56:33.877Z,0.50
2022-12-03T22:59:00.586Z,0.50
2022-12-03T23:01:31.791Z,0.50
2022-12-03T23:03:59.030Z,0.50
2022-12-03T23:06:25.801Z,0.50
2022-12-03T23:08:52.529Z,0.50
2022-12-03T23:11:19.251Z,0.50
2022-12-03T23:13:45.994Z,0.50
2022-12-03T23:16:15.125Z,0.50
2022-12-03T23:18:41.829Z,0.50
2022-12-03T23:21:08.524Z,0.50
2022-12-03T23:23:35.240Z,0.50
2022-12-03T23:26:06.417Z,0.40
2022-12-03T23:28:33.883Z,0.40
2022-12-03T23:31:00.659Z,0.40
2022-12-03T23:33:27.857Z,0.50
2022-12-03T23:35:54.856Z,0.50
2022-12-03T23:38:21.474Z,0.50
2022-12-03T23:40:48.612Z,0.40
2022-12-03T23:43:15.855Z,0.40
2022-12-03T23:45:42.564Z,0.50
2022-12-03T23:48:09.197Z,0.50
2022-12-03T23:50:38.595Z,0.50
2022-12-03T23:53:05.196Z,0.40
2022-12-03T23:55:31.833Z,0.40
2022-12-03T23:57:58.572Z,0.40
